Terminal Aerodrome Forecast
Issued by NWS Cleveland, OH

Home | Current Version | Previous Version | Graphics & Text | Print | Product List | Glossary On
Versions: 1 2 3 4 5 6 7 8 9 10 11 12 13 14 15 16 17
346
FTUS41 KCLE 270412 AAC
TAFERI
TAF AMD
KERI 270412Z 2704/2724 20010KT P6SM -SHRA VCTS SCT025CB OVC040
      TEMPO 2706/2710 VRB25G35KT 2SM -TSRA BKN015 OVC025CB
     FM271200 23010G20KT P6SM SCT025 OVC050
     FM271500 27012KT P6SM SCT025 BKN035=

USA.gov is the U.S. government's official web portal to all federal, state and local government web resources and services.